sensor_id;sensor_type;location;lat;lon;timestamp;pressure;altitude;pressure_sealevel;temperature;humidity
58668;BME280;59852;43.086;25.634;2023-01-16T00:00:53;98818.16;;;2.94;81.86
58668;BME280;59852;43.086;25.634;2023-01-16T00:03:19;98807.88;;;2.70;82.66
58668;BME280;59852;43.086;25.634;2023-01-16T00:05:44;98800.47;;;2.61;82.91
58668;BME280;59852;43.086;25.634;2023-01-16T00:08:10;98806.50;;;2.83;82.51
58668;BME280;59852;43.086;25.634;2023-01-16T00:10:35;98810.22;;;2.98;81.82
58668;BME280;59852;43.086;25.634;2023-01-16T00:13:01;98805.41;;;3.11;81.45
58668;BME280;59852;43.086;25.634;2023-01-16T00:15:26;98806.69;;;3.01;81.93
58668;BME280;59852;43.086;25.634;2023-01-16T00:17:52;98798.22;;;2.75;83.17
58668;BME280;59852;43.086;25.634;2023-01-16T00:20:17;98793.94;;;2.74;82.60
58668;BME280;59852;43.086;25.634;2023-01-16T00:22:42;98795.16;;;2.66;82.46
58668;BME280;59852;43.086;25.634;2023-01-16T00:25:08;98792.19;;;2.75;82.04
58668;BME280;59852;43.086;25.634;2023-01-16T00:27:33;98798.16;;;2.77;82.92
58668;BME280;59852;43.086;25.634;2023-01-16T00:29:59;98793.50;;;2.85;81.98
58668;BME280;59852;43.086;25.634;2023-01-16T00:32:24;98796.06;;;2.86;81.78
58668;BME280;59852;43.086;25.634;2023-01-16T00:34:49;98794.84;;;2.95;80.95
58668;BME280;59852;43.086;25.634;2023-01-16T00:37:15;98787.97;;;2.94;81.32
58668;BME280;59852;43.086;25.634;2023-01-16T00:39:40;98792.50;;;2.89;81.19
58668;BME280;59852;43.086;25.634;2023-01-16T00:42:06;98784.34;;;2.78;82.09
58668;BME280;59852;43.086;25.634;2023-01-16T00:44:32;98779.25;;;2.76;81.89
58668;BME280;59852;43.086;25.634;2023-01-16T00:46:57;98779.75;;;2.84;81.50
58668;BME280;59852;43.086;25.634;2023-01-16T00:49:22;98782.88;;;2.93;81.14
58668;BME280;59852;43.086;25.634;2023-01-16T00:51:48;98783.00;;;2.90;81.39
58668;BME280;59852;43.086;25.634;2023-01-16T00:54:13;98783.31;;;2.82;81.83
58668;BME280;59852;43.086;25.634;2023-01-16T00:56:38;98777.56;;;2.75;82.06
58668;BME280;59852;43.086;25.634;2023-01-16T00:59:04;98774.97;;;2.75;82.03
58668;BME280;59852;43.086;25.634;2023-01-16T01:01:29;98773.03;;;2.80;81.81
58668;BME280;59852;43.086;25.634;2023-01-16T01:03:54;98767.31;;;2.94;81.07
58668;BME280;59852;43.086;25.634;2023-01-16T01:06:20;98765.97;;;2.85;81.73
58668;BME280;59852;43.086;25.634;2023-01-16T01:08:45;98768.16;;;2.95;81.59
58668;BME280;59852;43.086;25.634;2023-01-16T01:11:11;98768.81;;;3.00;81.07
58668;BME280;59852;43.086;25.634;2023-01-16T01:13:37;98763.66;;;3.00;81.60
58668;BME280;59852;43.086;25.634;2023-01-16T01:16:03;98757.78;;;2.96;80.95
58668;BME280;59852;43.086;25.634;2023-01-16T01:18:28;98753.44;;;2.97;81.63
58668;BME280;59852;43.086;25.634;2023-01-16T01:20:54;98747.31;;;2.99;81.19
58668;BME280;59852;43.086;25.634;2023-01-16T01:23:19;98753.91;;;2.84;81.73
58668;BME280;59852;43.086;25.634;2023-01-16T01:25:44;98745.94;;;2.91;81.25
58668;BME280;59852;43.086;25.634;2023-01-16T01:28:10;98746.78;;;2.91;81.53
58668;BME280;59852;43.086;25.634;2023-01-16T01:30:35;98737.94;;;2.97;81.37
58668;BME280;59852;43.086;25.634;2023-01-16T01:33:00;98742.91;;;3.01;80.87
58668;BME280;59852;43.086;25.634;2023-01-16T01:35:25;98741.63;;;2.91;81.11
58668;BME280;59852;43.086;25.634;2023-01-16T01:37:51;98741.63;;;2.91;81.15
58668;BME280;59852;43.086;25.634;2023-01-16T01:40:16;98731.34;;;2.90;81.42
58668;BME280;59852;43.086;25.634;2023-01-16T01:42:42;98720.94;;;2.91;81.34
58668;BME280;59852;43.086;25.634;2023-01-16T01:47:36;98725.28;;;2.91;81.69
58668;BME280;59852;43.086;25.634;2023-01-16T01:50:04;98722.22;;;2.81;81.80
58668;BME280;59852;43.086;25.634;2023-01-16T01:52:36;98718.63;;;2.63;82.53
58668;BME280;59852;43.086;25.634;2023-01-16T01:55:02;98720.06;;;2.70;82.78
58668;BME280;59852;43.086;25.634;2023-01-16T01:57:30;98719.94;;;2.73;81.79
58668;BME280;59852;43.086;25.634;2023-01-16T02:00:03;98713.59;;;2.60;82.07
58668;BME280;59852;43.086;25.634;2023-01-16T02:02:30;98708.66;;;2.54;82.15
58668;BME280;59852;43.086;25.634;2023-01-16T02:04:56;98706.81;;;2.57;82.32
58668;BME280;59852;43.086;25.634;2023-01-16T02:07:22;98705.91;;;2.58;82.13
58668;BME280;59852;43.086;25.634;2023-01-16T02:09:49;98692.94;;;2.60;82.51
58668;BME280;59852;43.086;25.634;2023-01-16T02:12:18;98707.44;;;2.63;82.24
58668;BME280;59852;43.086;25.634;2023-01-16T02:14:44;98707.66;;;2.58;82.25
58668;BME280;59852;43.086;25.634;2023-01-16T02:17:12;98709.81;;;2.47;82.80
58668;BME280;59852;43.086;25.634;2023-01-16T02:30:29;98697.03;;;2.66;82.37
58668;BME280;59852;43.086;25.634;2023-01-16T02:33:13;98694.97;;;2.52;82.91
58668;BME280;59852;43.086;25.634;2023-01-16T02:35:51;98692.81;;;2.63;82.67
58668;BME280;59852;43.086;25.634;2023-01-16T02:43:42;98695.28;;;2.66;82.11
58668;BME280;59852;43.086;25.634;2023-01-16T02:48:37;98698.88;;;2.62;82.63
58668;BME280;59852;43.086;25.634;2023-01-16T02:51:12;98701.59;;;2.59;82.22
58668;BME280;59852;43.086;25.634;2023-01-16T02:53:44;98684.88;;;2.68;82.20
58668;BME280;59852;43.086;25.634;2023-01-16T02:56:11;98693.16;;;2.54;82.74
58668;BME280;59852;43.086;25.634;2023-01-16T02:58:41;98696.16;;;2.43;83.00
58668;BME280;59852;43.086;25.634;2023-01-16T03:01:07;98691.25;;;2.59;82.88
58668;BME280;59852;43.086;25.634;2023-01-16T03:06:03;98680.72;;;2.64;82.46
58668;BME280;59852;43.086;25.634;2023-01-16T03:11:29;98672.75;;;2.70;82.33
58668;BME280;59852;43.086;25.634;2023-01-16T03:13:50;98673.06;;;2.40;83.31
58668;BME280;59852;43.086;25.634;2023-01-16T03:24:41;98670.47;;;2.62;82.28
58668;BME280;59852;43.086;25.634;2023-01-16T03:27:11;98670.47;;;2.62;81.92
58668;BME280;59852;43.086;25.634;2023-01-16T03:34:42;98663.81;;;2.56;82.29
58668;BME280;59852;43.086;25.634;2023-01-16T03:37:12;98660.13;;;2.62;81.79
58668;BME280;59852;43.086;25.634;2023-01-16T03:39:46;98661.09;;;2.59;81.92
58668;BME280;59852;43.086;25.634;2023-01-16T03:42:19;98662.78;;;2.61;81.86
58668;BME280;59852;43.086;25.634;2023-01-16T03:44:48;98666.22;;;2.61;81.70
58668;BME280;59852;43.086;25.634;2023-01-16T03:47:18;98657.41;;;2.65;81.54
58668;BME280;59852;43.086;25.634;2023-01-16T03:49:46;98663.75;;;2.58;81.62
58668;BME280;59852;43.086;25.634;2023-01-16T03:52:14;98657.22;;;2.49;82.26
58668;BME280;59852;43.086;25.634;2023-01-16T03:54:56;98654.78;;;2.46;81.98
58668;BME280;59852;43.086;25.634;2023-01-16T03:59:49;98649.09;;;2.58;81.98
58668;BME280;59852;43.086;25.634;2023-01-16T04:02:27;98644.84;;;2.36;82.57
58668;BME280;59852;43.086;25.634;2023-01-16T04:05:07;98646.03;;;1.83;83.29
58668;BME280;59852;43.086;25.634;2023-01-16T04:07:42;98652.75;;;1.87;83.58
58668;BME280;59852;43.086;25.634;2023-01-16T04:10:24;98645.63;;;1.94;83.87
58668;BME280;59852;43.086;25.634;2023-01-16T04:13:05;98636.13;;;1.94;84.26
58668;BME280;59852;43.086;25.634;2023-01-16T04:15:31;98642.94;;;1.97;84.37
58668;BME280;59852;43.086;25.634;2023-01-16T04:17:58;98638.97;;;2.10;83.68
58668;BME280;59852;43.086;25.634;2023-01-16T04:20:24;98632.69;;;2.17;83.23
58668;BME280;59852;43.086;25.634;2023-01-16T04:22:50;98626.84;;;2.34;82.73
58668;BME280;59852;43.086;25.634;2023-01-16T04:25:16;98617.13;;;2.41;82.65
58668;BME280;59852;43.086;25.634;2023-01-16T04:27:42;98616.75;;;2.50;82.08
58668;BME280;59852;43.086;25.634;2023-01-16T04:30:08;98622.22;;;2.42;82.02
58668;BME280;59852;43.086;25.634;2023-01-16T04:32:33;98615.63;;;2.35;82.43
58668;BME280;59852;43.086;25.634;2023-01-16T04:34:59;98615.13;;;2.47;82.11
58668;BME280;59852;43.086;25.634;2023-01-16T04:37:24;98613.00;;;2.37;82.31
58668;BME280;59852;43.086;25.634;2023-01-16T04:39:49;98611.34;;;2.34;82.35
58668;BME280;59852;43.086;25.634;2023-01-16T04:42:15;98618.53;;;2.27;83.16
58668;BME280;59852;43.086;25.634;2023-01-16T04:44:40;98619.16;;;2.33;82.45
58668;BME280;59852;43.086;25.634;2023-01-16T04:47:06;98615.81;;;2.30;82.67
58668;BME280;59852;43.086;25.634;2023-01-16T04:49:31;98607.59;;;2.21;82.96
58668;BME280;59852;43.086;25.634;2023-01-16T04:51:57;98602.19;;;2.27;82.77
58668;BME280;59852;43.086;25.634;2023-01-16T04:54:22;98609.03;;;2.28;82.44
58668;BME280;59852;43.086;25.634;2023-01-16T04:56:48;98595.41;;;2.24;83.08
58668;BME280;59852;43.086;25.634;2023-01-16T04:59:13;98593.63;;;2.26;82.28
58668;BME280;59852;43.086;25.634;2023-01-16T05:01:39;98584.25;;;2.24;82.23
58668;BME280;59852;43.086;25.634;2023-01-16T05:04:05;98577.69;;;2.15;82.99
58668;BME280;59852;43.086;25.634;2023-01-16T05:06:30;98574.28;;;2.37;82.22
58668;BME280;59852;43.086;25.634;2023-01-16T05:08:56;98572.56;;;2.36;81.71
58668;BME280;59852;43.086;25.634;2023-01-16T05:11:21;98573.91;;;2.24;82.46
58668;BME280;59852;43.086;25.634;2023-01-16T05:13:47;98563.25;;;2.11;83.22
58668;BME280;59852;43.086;25.634;2023-01-16T05:16:12;98561.53;;;1.90;84.31
58668;BME280;59852;43.086;25.634;2023-01-16T05:18:37;98558.66;;;1.97;84.12
58668;BME280;59852;43.086;25.634;2023-01-16T05:21:03;98553.53;;;2.18;83.23
58668;BME280;59852;43.086;25.634;2023-01-16T05:23:30;98546.25;;;2.07;83.46
58668;BME280;59852;43.086;25.634;2023-01-16T05:25:56;98554.44;;;2.17;83.16
58668;BME280;59852;43.086;25.634;2023-01-16T05:28:21;98556.56;;;2.07;83.84
58668;BME280;59852;43.086;25.634;2023-01-16T05:30:47;98560.91;;;2.27;82.84
58668;BME280;59852;43.086;25.634;2023-01-16T05:33:12;98554.50;;;2.36;82.39
58668;BME280;59852;43.086;25.634;2023-01-16T05:35:38;98556.06;;;2.40;82.26
58668;BME280;59852;43.086;25.634;2023-01-16T05:38:03;98552.34;;;2.47;82.19
58668;BME280;59852;43.086;25.634;2023-01-16T05:40:29;98548.03;;;2.47;82.16
58668;BME280;59852;43.086;25.634;2023-01-16T05:42:54;98551.06;;;2.57;82.01
58668;BME280;59852;43.086;25.634;2023-01-16T05:45:19;98547.13;;;2.48;81.75
58668;BME280;59852;43.086;25.634;2023-01-16T05:47:45;98543.41;;;2.54;81.91
58668;BME280;59852;43.086;25.634;2023-01-16T05:50:11;98543.50;;;2.52;81.97
58668;BME280;59852;43.086;25.634;2023-01-16T05:52:36;98543.69;;;2.48;82.12
58668;BME280;59852;43.086;25.634;2023-01-16T05:55:01;98545.16;;;2.53;82.12
58668;BME280;59852;43.086;25.634;2023-01-16T05:57:27;98553.56;;;2.58;81.51
58668;BME280;59852;43.086;25.634;2023-01-16T05:59:52;98557.00;;;2.79;80.97
58668;BME280;59852;43.086;25.634;2023-01-16T06:02:18;98563.94;;;2.98;80.69
58668;BME280;59852;43.086;25.634;2023-01-16T06:04:44;98562.44;;;3.31;78.88
58668;BME280;59852;43.086;25.634;2023-01-16T06:07:10;98564.97;;;3.33;78.99
58668;BME280;59852;43.086;25.634;2023-01-16T06:09:35;98564.06;;;3.15;80.01
58668;BME280;59852;43.086;25.634;2023-01-16T06:12:00;98567.94;;;3.05;81.06
58668;BME280;59852;43.086;25.634;2023-01-16T06:14:26;98560.97;;;3.07;81.67
58668;BME280;59852;43.086;25.634;2023-01-16T06:16:51;98560.06;;;3.08;81.22
58668;BME280;59852;43.086;25.634;2023-01-16T06:19:16;98555.94;;;3.23;80.76
58668;BME280;59852;43.086;25.634;2023-01-16T06:21:41;98557.34;;;3.30;80.49
58668;BME280;59852;43.086;25.634;2023-01-16T06:24:07;98560.56;;;3.16;81.72
58668;BME280;59852;43.086;25.634;2023-01-16T06:26:32;98559.06;;;3.10;82.67
58668;BME280;59852;43.086;25.634;2023-01-16T06:28:57;98553.56;;;3.18;82.43
58668;BME280;59852;43.086;25.634;2023-01-16T06:31:23;98561.13;;;3.41;80.27
58668;BME280;59852;43.086;25.634;2023-01-16T06:33:48;98562.19;;;3.56;79.76
58668;BME280;59852;43.086;25.634;2023-01-16T06:36:13;98557.09;;;3.55;79.24
58668;BME280;59852;43.086;25.634;2023-01-16T06:38:39;98558.53;;;3.60;80.23
58668;BME280;59852;43.086;25.634;2023-01-16T06:41:04;98559.72;;;3.72;80.19
58668;BME280;59852;43.086;25.634;2023-01-16T06:43:29;98560.75;;;4.06;77.82
58668;BME280;59852;43.086;25.634;2023-01-16T06:45:55;98551.75;;;3.95;77.35
58668;BME280;59852;43.086;25.634;2023-01-16T06:48:21;98543.31;;;4.09;77.35
58668;BME280;59852;43.086;25.634;2023-01-16T06:50:46;98553.91;;;4.22;76.34
58668;BME280;59852;43.086;25.634;2023-01-16T06:53:12;98550.84;;;4.31;75.46
58668;BME280;59852;43.086;25.634;2023-01-16T06:55:38;98537.06;;;4.30;75.56
58668;BME280;59852;43.086;25.634;2023-01-16T06:58:04;98535.78;;;4.56;74.24
58668;BME280;59852;43.086;25.634;2023-01-16T07:00:29;98530.13;;;4.83;73.22
58668;BME280;59852;43.086;25.634;2023-01-16T07:02:56;98517.22;;;4.99;73.35
58668;BME280;59852;43.086;25.634;2023-01-16T07:05:22;98528.38;;;4.83;72.42
58668;BME280;59852;43.086;25.634;2023-01-16T07:07:47;98527.63;;;5.14;72.27
58668;BME280;59852;43.086;25.634;2023-01-16T07:10:12;98520.63;;;5.48;69.89
58668;BME280;59852;43.086;25.634;2023-01-16T07:12:38;98513.97;;;6.51;67.25
58668;BME280;59852;43.086;25.634;2023-01-16T07:15:04;98512.16;;;7.80;62.44
58668;BME280;59852;43.086;25.634;2023-01-16T07:17:48;98508.19;;;8.41;58.57
58668;BME280;59852;43.086;25.634;2023-01-16T07:20:32;98510.06;;;10.01;54.18
58668;BME280;59852;43.086;25.634;2023-01-16T07:23:20;98498.63;;;10.85;51.00
58668;BME280;59852;43.086;25.634;2023-01-16T07:25:46;98503.03;;;10.96;51.94
58668;BME280;59852;43.086;25.634;2023-01-16T07:28:12;98496.13;;;12.05;48.71
58668;BME280;59852;43.086;25.634;2023-01-16T07:30:38;98492.13;;;13.76;43.72
58668;BME280;59852;43.086;25.634;2023-01-16T07:33:03;98492.72;;;13.99;43.16
58668;BME280;59852;43.086;25.634;2023-01-16T07:35:28;98489.16;;;13.51;43.66
58668;BME280;59852;43.086;25.634;2023-01-16T07:37:54;98475.25;;;12.78;44.92
58668;BME280;59852;43.086;25.634;2023-01-16T07:40:22;98465.00;;;11.69;47.02
58668;BME280;59852;43.086;25.634;2023-01-16T07:42:49;98459.19;;;12.92;45.66
58668;BME280;59852;43.086;25.634;2023-01-16T07:45:14;98456.41;;;13.64;43.81
58668;BME280;59852;43.086;25.634;2023-01-16T07:47:39;98446.47;;;14.45;41.25
58668;BME280;59852;43.086;25.634;2023-01-16T07:50:05;98446.84;;;13.54;43.75
58668;BME280;59852;43.086;25.634;2023-01-16T07:52:30;98437.34;;;14.20;41.96
58668;BME280;59852;43.086;25.634;2023-01-16T07:54:55;98427.22;;;14.45;40.35
58668;BME280;59852;43.086;25.634;2023-01-16T07:57:21;98423.13;;;15.44;38.35
58668;BME280;59852;43.086;25.634;2023-01-16T07:59:46;98413.63;;;15.51;37.34
58668;BME280;59852;43.086;25.634;2023-01-16T08:02:11;98400.13;;;18.20;33.92
58668;BME280;59852;43.086;25.634;2023-01-16T08:04:37;98406.03;;;18.63;33.88
58668;BME280;59852;43.086;25.634;2023-01-16T08:07:02;98387.34;;;18.48;33.23
58668;BME280;59852;43.086;25.634;2023-01-16T08:09:27;98380.56;;;18.38;32.91
58668;BME280;59852;43.086;25.634;2023-01-16T08:11:53;98376.97;;;18.30;33.35
58668;BME280;59852;43.086;25.634;2023-01-16T08:14:18;98376.63;;;18.42;32.77
58668;BME280;59852;43.086;25.634;2023-01-16T08:16:44;98374.00;;;17.26;34.85
58668;BME280;59852;43.086;25.634;2023-01-16T08:19:09;98383.09;;;18.23;33.83
58668;BME280;59852;43.086;25.634;2023-01-16T08:21:34;98377.28;;;18.35;33.52
58668;BME280;59852;43.086;25.634;2023-01-16T08:24:00;98369.75;;;16.39;36.11
58668;BME280;59852;43.086;25.634;2023-01-16T08:26:25;98364.88;;;16.78;35.39
58668;BME280;59852;43.086;25.634;2023-01-16T08:28:50;98378.91;;;14.83;38.24
58668;BME280;59852;43.086;25.634;2023-01-16T08:31:17;98376.78;;;16.04;37.49
58668;BME280;59852;43.086;25.634;2023-01-16T08:33:43;98364.88;;;15.65;36.79
58668;BME280;59852;43.086;25.634;2023-01-16T08:36:11;98360.81;;;14.04;40.85
58668;BME280;59852;43.086;25.634;2023-01-16T08:38:36;98362.34;;;10.66;49.76
58668;BME280;59852;43.086;25.634;2023-01-16T08:41:02;98367.06;;;9.57;53.11
58668;BME280;59852;43.086;25.634;2023-01-16T08:43:28;98363.81;;;8.69;54.59
58668;BME280;59852;43.086;25.634;2023-01-16T08:46:19;98347.34;;;9.05;54.60
58668;BME280;59852;43.086;25.634;2023-01-16T08:49:03;98355.50;;;8.39;56.57
58668;BME280;59852;43.086;25.634;2023-01-16T08:51:48;98358.56;;;8.82;56.26
58668;BME280;59852;43.086;25.634;2023-01-16T08:54:13;98353.78;;;8.76;55.83
58668;BME280;59852;43.086;25.634;2023-01-16T08:56:38;98369.13;;;8.17;57.01
58668;BME280;59852;43.086;25.634;2023-01-16T08:59:08;98366.41;;;8.69;56.31
58668;BME280;59852;43.086;25.634;2023-01-16T09:01:33;98364.00;;;8.79;56.41
58668;BME280;59852;43.086;25.634;2023-01-16T09:03:58;98367.97;;;8.72;56.13
58668;BME280;59852;43.086;25.634;2023-01-16T09:06:24;98370.16;;;8.65;57.39
58668;BME280;59852;43.086;25.634;2023-01-16T09:08:49;98368.91;;;8.71;56.42
58668;BME280;59852;43.086;25.634;2023-01-16T09:11:15;98368.19;;;8.43;56.55
58668;BME280;59852;43.086;25.634;2023-01-16T09:13:59;98360.16;;;8.59;58.33
58668;BME280;59852;43.086;25.634;2023-01-16T09:16:25;98352.75;;;8.53;55.49
58668;BME280;59852;43.086;25.634;2023-01-16T09:18:51;98346.94;;;8.49;55.71
58668;BME280;59852;43.086;25.634;2023-01-16T09:21:17;98338.78;;;8.28;56.89
58668;BME280;59852;43.086;25.634;2023-01-16T09:23:47;98340.56;;;8.53;56.47
58668;BME280;59852;43.086;25.634;2023-01-16T09:26:12;98336.38;;;8.63;57.20
58668;BME280;59852;43.086;25.634;2023-01-16T09:28:38;98338.88;;;8.52;56.54
58668;BME280;59852;43.086;25.634;2023-01-16T09:31:03;98332.75;;;8.28;56.34
58668;BME280;59852;43.086;25.634;2023-01-16T09:33:29;98320.03;;;8.11;57.06
58668;BME280;59852;43.086;25.634;2023-01-16T09:35:54;98318.47;;;8.08;57.39
58668;BME280;59852;43.086;25.634;2023-01-16T09:38:19;98317.31;;;8.12;58.08
58668;BME280;59852;43.086;25.634;2023-01-16T09:40:46;98301.78;;;7.85;58.88
58668;BME280;59852;43.086;25.634;2023-01-16T09:45:58;98306.03;;;7.86;58.24
58668;BME280;59852;43.086;25.634;2023-01-16T09:48:28;98292.09;;;8.25;58.63
58668;BME280;59852;43.086;25.634;2023-01-16T09:50:57;98296.69;;;8.47;57.85
58668;BME280;59852;43.086;25.634;2023-01-16T09:56:28;98290.13;;;8.29;58.56
58668;BME280;59852;43.086;25.634;2023-01-16T10:02:03;98286.97;;;8.24;57.75
58668;BME280;59852;43.086;25.634;2023-01-16T10:04:31;98269.28;;;8.03;57.41
58668;BME280;59852;43.086;25.634;2023-01-16T10:12:08;98272.00;;;8.40;56.56
58668;BME280;59852;43.086;25.634;2023-01-16T10:19:51;98267.53;;;8.17;56.43
58668;BME280;59852;43.086;25.634;2023-01-16T10:30:09;98244.94;;;8.67;55.56
58668;BME280;59852;43.086;25.634;2023-01-16T10:32:41;98233.56;;;8.68;55.77
58668;BME280;59852;43.086;25.634;2023-01-16T10:37:47;98224.66;;;8.46;55.81
58668;BME280;59852;43.086;25.634;2023-01-16T10:40:25;98220.84;;;8.63;56.76
58668;BME280;59852;43.086;25.634;2023-01-16T10:46:04;98210.22;;;8.53;55.64
58668;BME280;59852;43.086;25.634;2023-01-16T10:48:54;98210.69;;;8.71;55.36
58668;BME280;59852;43.086;25.634;2023-01-16T10:51:38;98212.75;;;8.79;56.06
58668;BME280;59852;43.086;25.634;2023-01-16T10:54:03;98209.19;;;8.80;56.27
58668;BME280;59852;43.086;25.634;2023-01-16T10:56:28;98203.03;;;8.81;54.51
58668;BME280;59852;43.086;25.634;2023-01-16T10:58:57;98200.13;;;8.85;55.36
58668;BME280;59852;43.086;25.634;2023-01-16T11:01:23;98199.38;;;8.83;55.11
58668;BME280;59852;43.086;25.634;2023-01-16T11:03:50;98188.28;;;8.69;54.84
58668;BME280;59852;43.086;25.634;2023-01-16T11:06:20;98195.88;;;8.72;55.48
58668;BME280;59852;43.086;25.634;2023-01-16T11:08:47;98194.50;;;8.79;56.78
58668;BME280;59852;43.086;25.634;2023-01-16T11:11:13;98190.56;;;8.73;57.01
58668;BME280;59852;43.086;25.634;2023-01-16T11:13:58;98194.22;;;8.71;55.23
58668;BME280;59852;43.086;25.634;2023-01-16T11:16:43;98188.69;;;8.75;55.71
58668;BME280;59852;43.086;25.634;2023-01-16T12:08:18;98133.63;;;8.56;56.95
58668;BME280;59852;43.086;25.634;2023-01-16T12:10:51;98134.66;;;8.53;55.03
58668;BME280;59852;43.086;25.634;2023-01-16T12:13:23;98135.88;;;8.60;55.82
58668;BME280;59852;43.086;25.634;2023-01-16T12:18:59;98143.34;;;8.65;56.81
58668;BME280;59852;43.086;25.634;2023-01-16T12:21:31;98130.88;;;8.57;55.50
58668;BME280;59852;43.086;25.634;2023-01-16T12:59:38;98113.31;;;8.48;56.48
58668;BME280;59852;43.086;25.634;2023-01-16T13:02:13;98111.59;;;8.36;55.33
58668;BME280;59852;43.086;25.634;2023-01-16T13:04:45;98105.00;;;8.30;55.21
58668;BME280;59852;43.086;25.634;2023-01-16T13:07:14;98109.66;;;8.14;55.62
58668;BME280;59852;43.086;25.634;2023-01-16T13:09:42;98107.38;;;8.10;55.62
58668;BME280;59852;43.086;25.634;2023-01-16T13:15:26;98106.50;;;8.22;57.08
58668;BME280;59852;43.086;25.634;2023-01-16T13:17:58;98101.78;;;8.03;56.17
58668;BME280;59852;43.086;25.634;2023-01-16T13:20:26;98087.16;;;8.13;56.43
58668;BME280;59852;43.086;25.634;2023-01-16T13:22:54;98090.69;;;8.12;56.23
58668;BME280;59852;43.086;25.634;2023-01-16T13:25:22;98086.31;;;8.13;57.44
58668;BME280;59852;43.086;25.634;2023-01-16T13:27:53;98080.72;;;8.06;56.40
58668;BME280;59852;43.086;25.634;2023-01-16T13:30:20;98067.97;;;7.90;57.23
58668;BME280;59852;43.086;25.634;2023-01-16T13:33:07;98067.84;;;7.92;57.01
58668;BME280;59852;43.086;25.634;2023-01-16T13:36:15;98069.81;;;8.01;57.80
58668;BME280;59852;43.086;25.634;2023-01-16T13:38:36;98078.44;;;8.01;58.21
58668;BME280;59852;43.086;25.634;2023-01-16T13:41:10;98075.63;;;8.04;58.55
58668;BME280;59852;43.086;25.634;2023-01-16T13:44:24;98070.22;;;8.08;57.93
58668;BME280;59852;43.086;25.634;2023-01-16T13:46:41;98058.38;;;7.91;58.71
58668;BME280;59852;43.086;25.634;2023-01-16T13:49:12;98058.50;;;7.89;58.37
58668;BME280;59852;43.086;25.634;2023-01-16T13:51:43;98048.19;;;7.88;58.96
58668;BME280;59852;43.086;25.634;2023-01-16T13:54:13;98050.41;;;7.81;59.87
58668;BME280;59852;43.086;25.634;2023-01-16T13:56:42;98047.69;;;7.83;58.33
58668;BME280;59852;43.086;25.634;2023-01-16T13:59:08;98047.25;;;7.89;59.31
58668;BME280;59852;43.086;25.634;2023-01-16T14:04:11;98044.75;;;7.87;59.93
58668;BME280;59852;43.086;25.634;2023-01-16T14:06:53;98039.16;;;7.81;59.25
58668;BME280;59852;43.086;25.634;2023-01-16T14:12:59;98025.56;;;7.64;60.02
58668;BME280;59852;43.086;25.634;2023-01-16T14:15:21;98032.31;;;7.67;59.58
58668;BME280;59852;43.086;25.634;2023-01-16T14:18:16;98016.03;;;7.52;58.85
58668;BME280;59852;43.086;25.634;2023-01-16T14:26:04;98019.16;;;7.57;60.06
58668;BME280;59852;43.086;25.634;2023-01-16T14:28:30;98031.53;;;7.54;60.51
58668;BME280;59852;43.086;25.634;2023-01-16T14:30:57;98033.81;;;7.45;59.18
58668;BME280;59852;43.086;25.634;2023-01-16T14:33:23;98036.13;;;7.50;60.15
58668;BME280;59852;43.086;25.634;2023-01-16T14:35:50;98027.78;;;7.45;60.46
58668;BME280;59852;43.086;25.634;2023-01-16T14:38:20;98025.81;;;7.48;61.38
58668;BME280;59852;43.086;25.634;2023-01-16T14:40:51;98027.59;;;7.35;60.39
58668;BME280;59852;43.086;25.634;2023-01-16T14:43:36;98016.78;;;7.41;60.01
58668;BME280;59852;43.086;25.634;2023-01-16T14:46:30;98018.53;;;7.41;60.60
58668;BME280;59852;43.086;25.634;2023-01-16T14:55:23;97998.16;;;7.35;60.15
58668;BME280;59852;43.086;25.634;2023-01-16T14:57:50;97995.88;;;7.30;60.03
58668;BME280;59852;43.086;25.634;2023-01-16T15:00:17;97992.47;;;7.30;60.39
58668;BME280;59852;43.086;25.634;2023-01-16T15:02:50;97995.06;;;7.30;59.77
58668;BME280;59852;43.086;25.634;2023-01-16T15:05:22;97992.75;;;7.25;59.90
58668;BME280;59852;43.086;25.634;2023-01-16T15:08:08;97993.09;;;7.21;61.07
58668;BME280;59852;43.086;25.634;2023-01-16T15:10:38;97984.69;;;7.04;61.56
58668;BME280;59852;43.086;25.634;2023-01-16T15:13:13;97987.19;;;7.18;60.77
58668;BME280;59852;43.086;25.634;2023-01-16T15:15:42;97991.44;;;7.07;61.77
58668;BME280;59852;43.086;25.634;2023-01-16T15:18:11;97996.63;;;7.07;61.45
58668;BME280;59852;43.086;25.634;2023-01-16T15:20:57;97987.72;;;6.98;61.52
58668;BME280;59852;43.086;25.634;2023-01-16T15:23:40;97987.72;;;6.85;62.23
58668;BME280;59852;43.086;25.634;2023-01-16T15:26:09;97994.78;;;6.83;62.67
58668;BME280;59852;43.086;25.634;2023-01-16T15:34:03;97985.22;;;6.84;63.90
58668;BME280;59852;43.086;25.634;2023-01-16T15:41:42;97963.81;;;6.80;61.93
58668;BME280;59852;43.086;25.634;2023-01-16T15:44:28;97963.25;;;6.88;62.62
58668;BME280;59852;43.086;25.634;2023-01-16T15:52:11;97965.47;;;6.81;62.70
58668;BME280;59852;43.086;25.634;2023-01-16T15:54:37;97960.88;;;6.85;61.74
58668;BME280;59852;43.086;25.634;2023-01-16T15:57:03;97951.13;;;6.88;61.89
58668;BME280;59852;43.086;25.634;2023-01-16T15:59:30;97953.41;;;6.80;62.67
58668;BME280;59852;43.086;25.634;2023-01-16T16:02:08;97962.13;;;6.92;61.01
58668;BME280;59852;43.086;25.634;2023-01-16T16:04:40;97961.41;;;6.90;62.30
58668;BME280;59852;43.086;25.634;2023-01-16T16:07:05;97957.97;;;6.89;61.78
58668;BME280;59852;43.086;25.634;2023-01-16T16:09:32;97952.25;;;6.84;62.03
58668;BME280;59852;43.086;25.634;2023-01-16T16:11:57;97952.78;;;6.89;62.12
58668;BME280;59852;43.086;25.634;2023-01-16T16:14:28;97956.41;;;6.87;62.80
58668;BME280;59852;43.086;25.634;2023-01-16T16:22:50;97950.78;;;6.93;63.24
58668;BME280;59852;43.086;25.634;2023-01-16T16:25:30;97941.44;;;6.90;64.59
58668;BME280;59852;43.086;25.634;2023-01-16T16:27:57;97935.72;;;6.85;64.97
58668;BME280;59852;43.086;25.634;2023-01-16T16:30:23;97928.16;;;6.82;66.10
58668;BME280;59852;43.086;25.634;2023-01-16T16:32:50;97929.81;;;6.71;66.60